createdAt,value
2023-02-23T00:00:47.388Z,16.05
2023-02-23T00:03:14.608Z,16.06
2023-02-23T00:05:41.180Z,16.04
2023-02-23T00:08:07.900Z,16.03
2023-02-23T00:10:34.398Z,16.03
2023-02-23T00:13:00.726Z,16.03
2023-02-23T00:15:27.316Z,16.00
2023-02-23T00:17:53.617Z,16.03
2023-02-23T00:20:19.980Z,16.00
2023-02-23T00:22:46.810Z,16.00
2023-02-23T00:25:13.912Z,16.00
2023-02-23T00:27:40.446Z,16.00
2023-02-23T00:30:06.800Z,15.98
2023-02-23T00:32:33.590Z,16.00
2023-02-23T00:35:00.449Z,15.99
2023-02-23T00:37:27.506Z,16.00
2023-02-23T00:39:53.941Z,15.99
2023-02-23T00:42:20.705Z,15.96
2023-02-23T00:44:47.068Z,15.96
2023-02-23T00:47:13.621Z,15.96
2023-02-23T00:49:39.922Z,15.97
2023-02-23T00:52:06.324Z,15.95
2023-02-23T00:54:32.918Z,15.96
2023-02-23T00:56:59.699Z,15.96
2023-02-23T00:59:26.335Z,15.94
2023-02-23T01:01:52.946Z,15.94
2023-02-23T01:04:19.292Z,15.94
2023-02-23T01:06:45.674Z,15.94
2023-02-23T01:09:12.309Z,15.93
2023-02-23T01:11:38.716Z,15.93
2023-02-23T01:14:05.125Z,15.94
2023-02-23T01:16:31.875Z,15.92
2023-02-23T01:18:58.458Z,15.91
2023-02-23T01:21:24.742Z,15.92
2023-02-23T01:23:51.225Z,15.91
2023-02-23T01:26:18.115Z,15.92
2023-02-23T01:28:44.480Z,15.91
2023-02-23T01:31:10.934Z,15.90
2023-02-23T01:33:37.359Z,15.90
2023-02-23T01:36:03.707Z,15.89
2023-02-23T01:38:30.182Z,15.88
2023-02-23T01:40:57.136Z,15.88
2023-02-23T01:43:23.825Z,15.88
2023-02-23T01:45:50.378Z,15.89
2023-02-23T01:48:16.707Z,15.88
2023-02-23T01:50:43.080Z,15.88
2023-02-23T01:53:09.409Z,15.88
2023-02-23T01:55:35.771Z,15.87
2023-02-23T01:58:02.075Z,15.86
2023-02-23T02:00:28.570Z,15.86
2023-02-23T02:02:55.517Z,15.85
2023-02-23T02:05:21.935Z,15.85
2023-02-23T02:07:48.587Z,15.85
2023-02-23T02:10:15.061Z,15.83
2023-02-23T02:12:41.564Z,15.85
2023-02-23T02:15:09.008Z,15.84
2023-02-23T02:17:35.610Z,15.85
2023-02-23T02:20:01.939Z,15.83
2023-02-23T02:22:28.331Z,15.84
2023-02-23T02:24:54.640Z,15.81
2023-02-23T02:27:21.351Z,15.81
2023-02-23T02:29:47.725Z,15.82
2023-02-23T02:32:14.791Z,15.80
2023-02-23T02:34:41.242Z,15.81
2023-02-23T02:37:07.662Z,15.80
2023-02-23T02:39:34.066Z,15.80
2023-02-23T02:42:00.364Z,15.79
2023-02-23T02:44:27.299Z,15.80
2023-02-23T02:46:53.959Z,15.81
2023-02-23T02:49:20.350Z,15.79
2023-02-23T02:51:46.930Z,15.79
2023-02-23T02:54:13.300Z,15.77
2023-02-23T02:56:39.671Z,15.77
2023-02-23T02:59:06.044Z,15.77
2023-02-23T03:01:32.428Z,15.77
2023-02-23T03:03:58.748Z,15.76
2023-02-23T03:06:25.078Z,15.76
2023-02-23T03:08:51.582Z,15.76
2023-02-23T03:11:18.334Z,15.76
2023-02-23T03:13:45.083Z,15.77
2023-02-23T03:16:11.482Z,15.75
2023-02-23T03:18:37.953Z,15.75
2023-02-23T03:21:04.812Z,15.74
2023-02-23T03:23:31.914Z,15.74
2023-02-23T03:25:58.539Z,15.73
2023-02-23T03:28:26.161Z,15.74
2023-02-23T03:30:53.178Z,15.73
2023-02-23T03:33:19.575Z,15.72
2023-02-23T03:35:46.146Z,15.74
2023-02-23T03:38:12.622Z,15.72
2023-02-23T03:40:39.221Z,15.72
2023-02-23T03:43:05.819Z,15.71
2023-02-23T03:45:32.295Z,15.71
2023-02-23T03:47:58.879Z,15.71
2023-02-23T03:50:25.419Z,15.70
2023-02-23T03:52:51.765Z,15.71
2023-02-23T03:55:18.261Z,15.70
2023-02-23T03:57:44.746Z,15.68
2023-02-23T04:00:11.073Z,15.69
2023-02-23T04:02:37.710Z,15.69
2023-02-23T04:05:04.142Z,15.67
2023-02-23T04:07:31.152Z,15.68
2023-02-23T04:09:57.498Z,15.67
2023-02-23T04:12:23.925Z,15.68
2023-02-23T04:14:50.302Z,15.67
2023-02-23T04:17:16.671Z,15.67
2023-02-23T04:19:43.174Z,15.67
2023-02-23T04:22:09.519Z,15.66
2023-02-23T04:24:36.286Z,15.66
2023-02-23T04:27:02.655Z,15.64
2023-02-23T04:29:29.049Z,15.65
2023-02-23T04:31:55.467Z,15.67
2023-02-23T04:34:21.857Z,15.65
2023-02-23T04:36:48.917Z,15.63
2023-02-23T04:39:15.427Z,15.64
2023-02-23T04:41:41.789Z,15.63
2023-02-23T04:44:08.196Z,15.62
2023-02-23T04:46:34.556Z,15.62
2023-02-23T04:49:01.127Z,15.62
2023-02-23T04:51:27.672Z,15.63
2023-02-23T04:53:54.287Z,15.63
2023-02-23T04:56:20.807Z,15.62
2023-02-23T04:58:47.586Z,15.60
2023-02-23T05:01:14.001Z,15.59
2023-02-23T05:03:40.571Z,15.62
2023-02-23T05:06:07.232Z,15.61
2023-02-23T05:08:33.603Z,15.59
2023-02-23T05:11:00.334Z,15.58
2023-02-23T05:13:27.102Z,15.58
2023-02-23T05:15:53.513Z,15.58
2023-02-23T05:18:20.146Z,15.56
2023-02-23T05:20:47.002Z,15.57
2023-02-23T05:23:13.816Z,15.57
2023-02-23T05:25:40.668Z,15.58
2023-02-23T05:28:07.262Z,15.57
2023-02-23T05:30:33.814Z,15.56
2023-02-23T05:33:00.194Z,15.56
2023-02-23T05:35:26.975Z,15.54
2023-02-23T05:37:53.744Z,15.56
2023-02-23T05:40:20.391Z,15.54
2023-02-23T05:42:46.817Z,15.55
2023-02-23T05:45:13.467Z,15.56
2023-02-23T05:47:39.854Z,15.56
2023-02-23T05:50:06.520Z,15.54
2023-02-23T05:52:33.504Z,15.53
2023-02-23T05:55:00.176Z,15.54
2023-02-23T05:57:27.076Z,15.52
2023-02-23T05:59:53.539Z,15.53
2023-02-23T06:02:19.920Z,15.54
2023-02-23T06:04:46.788Z,15.53
2023-02-23T06:07:13.124Z,15.52
2023-02-23T06:09:39.699Z,15.51
2023-02-23T06:12:06.274Z,15.49
2023-02-23T06:14:32.566Z,15.45
2023-02-23T06:16:59.165Z,15.35
2023-02-23T06:19:25.610Z,15.35
2023-02-23T06:21:51.924Z,15.47
2023-02-23T06:24:18.275Z,15.37
2023-02-23T06:26:44.692Z,15.46
2023-02-23T06:29:10.977Z,15.40
2023-02-23T06:31:37.403Z,15.38
2023-02-23T06:34:03.826Z,15.36
2023-02-23T06:36:30.582Z,15.28
2023-02-23T06:38:57.004Z,15.43
2023-02-23T06:41:23.372Z,15.44
2023-02-23T06:43:49.865Z,15.44
2023-02-23T06:46:16.280Z,15.46
2023-02-23T06:48:42.647Z,15.53
2023-02-23T06:51:09.040Z,15.48
2023-02-23T06:53:35.409Z,15.49
2023-02-23T06:56:01.837Z,15.49
2023-02-23T06:58:28.182Z,15.47
2023-02-23T07:00:54.922Z,15.45
2023-02-23T07:03:21.236Z,15.37
2023-02-23T07:05:47.970Z,15.36
2023-02-23T07:08:14.396Z,15.45
2023-02-23T07:10:40.717Z,15.35
2023-02-23T07:13:07.392Z,15.34
2023-02-23T07:15:33.827Z,15.31
2023-02-23T07:18:00.147Z,15.23
2023-02-23T07:20:26.749Z,15.23
2023-02-23T07:22:53.664Z,15.48
2023-02-23T07:25:20.046Z,15.54
2023-02-23T07:27:46.646Z,15.51
2023-02-23T07:30:13.015Z,15.52
2023-02-23T07:32:39.467Z,15.47
2023-02-23T07:35:05.835Z,15.47
2023-02-23T07:37:32.465Z,15.45
2023-02-23T07:40:01.024Z,15.46
2023-02-23T07:42:27.865Z,15.45
2023-02-23T07:44:54.256Z,15.44
2023-02-23T07:47:20.708Z,15.49
2023-02-23T07:49:47.054Z,15.50
2023-02-23T07:52:13.782Z,15.49
2023-02-23T07:54:40.157Z,15.49
2023-02-23T07:57:06.898Z,15.47
2023-02-23T07:59:33.755Z,15.47
2023-02-23T08:02:00.163Z,15.47
2023-02-23T08:04:26.670Z,15.46
2023-02-23T08:06:53.250Z,15.53
2023-02-23T08:09:19.709Z,15.45
2023-02-23T08:11:46.449Z,15.46
2023-02-23T08:14:12.798Z,15.45
2023-02-23T08:16:39.262Z,15.46
2023-02-23T08:19:05.734Z,15.49
2023-02-23T08:21:32.510Z,15.49
2023-02-23T08:23:58.941Z,15.52
2023-02-23T08:26:25.425Z,15.54
2023-02-23T08:28:51.882Z,15.55
2023-02-23T08:31:18.674Z,15.56
2023-02-23T08:33:45.207Z,15.58
2023-02-23T08:36:11.559Z,15.58
2023-02-23T08:38:38.325Z,15.60
2023-02-23T08:41:04.843Z,15.60
2023-02-23T08:43:31.536Z,15.61
2023-02-23T08:45:58.168Z,15.61
2023-02-23T08:48:24.733Z,15.62
2023-02-23T08:50:51.032Z,15.61
2023-02-23T08:53:17.522Z,15.63
2023-02-23T08:55:43.888Z,15.63
2023-02-23T08:58:10.270Z,15.63
2023-02-23T09:00:36.830Z,15.63
2023-02-23T09:03:03.690Z,15.62
2023-02-23T09:05:30.135Z,15.63
2023-02-23T09:07:57.015Z,15.63
2023-02-23T09:10:23.575Z,15.62
2023-02-23T09:12:50.475Z,15.63
2023-02-23T09:15:16.850Z,15.63
2023-02-23T09:17:43.264Z,15.63
2023-02-23T09:20:09.562Z,15.62
2023-02-23T09:22:37.016Z,15.62
2023-02-23T09:25:03.510Z,15.62
2023-02-23T09:27:29.852Z,15.62
2023-02-23T09:29:56.271Z,15.62
2023-02-23T09:32:23.144Z,15.62
2023-02-23T09:34:49.611Z,15.61
2023-02-23T09:37:16.009Z,15.60
2023-02-23T09:39:42.757Z,15.59
2023-02-23T09:42:09.572Z,15.59
2023-02-23T09:44:35.862Z,15.59
2023-02-23T09:47:02.169Z,15.59
2023-02-23T09:49:29.020Z,15.59
2023-02-23T09:51:55.424Z,15.59
2023-02-23T09:54:21.904Z,15.57
2023-02-23T09:56:48.519Z,15.58
2023-02-23T09:59:14.909Z,15.58
2023-02-23T10:01:41.778Z,15.58
2023-02-23T10:04:08.214Z,15.57
2023-02-23T10:06:34.582Z,15.57
2023-02-23T10:09:01.406Z,15.57
2023-02-23T10:11:27.835Z,15.57
2023-02-23T10:13:54.211Z,15.56
2023-02-23T10:16:20.763Z,15.57
2023-02-23T10:18:47.510Z,15.56
2023-02-23T10:21:13.864Z,15.57
2023-02-23T10:23:40.440Z,15.56
2023-02-23T10:26:06.745Z,15.56
2023-02-23T10:28:33.394Z,15.56
2023-02-23T10:30:59.847Z,15.55
2023-02-23T10:33:26.787Z,15.56
2023-02-23T10:36:07.200Z,15.57
2023-02-23T10:38:39.115Z,15.57
2023-02-23T10:41:05.517Z,15.56
2023-02-23T10:43:32.063Z,15.56
2023-02-23T10:45:58.503Z,15.56
2023-02-23T10:48:25.554Z,15.56
2023-02-23T10:50:52.154Z,15.57
2023-02-23T10:53:18.576Z,15.57
2023-02-23T10:55:45.254Z,15.56
2023-02-23T10:58:11.669Z,15.56
2023-02-23T11:00:37.988Z,15.56
2023-02-23T11:03:04.371Z,15.55
2023-02-23T11:05:30.682Z,15.56
2023-02-23T11:07:57.745Z,15.57
2023-02-23T11:10:24.132Z,15.57
2023-02-23T11:12:50.771Z,15.56
2023-02-23T11:15:17.181Z,15.56
2023-02-23T11:17:43.743Z,15.57
2023-02-23T11:20:10.560Z,15.56
2023-02-23T11:22:36.978Z,15.57
2023-02-23T11:25:03.675Z,15.57
2023-02-23T11:27:30.171Z,15.57
2023-02-23T11:29:56.606Z,15.58
2023-02-23T11:32:23.372Z,15.58
2023-02-23T11:34:50.146Z,15.58
2023-02-23T11:37:16.870Z,15.58
2023-02-23T11:39:43.402Z,15.58
2023-02-23T11:42:09.911Z,15.58
2023-02-23T11:44:36.444Z,15.58
2023-02-23T11:47:02.826Z,15.59
2023-02-23T11:49:29.593Z,15.57
2023-02-23T11:51:56.122Z,15.58
2023-02-23T11:54:22.417Z,15.58
2023-02-23T11:56:49.189Z,15.59
2023-02-23T11:59:15.527Z,15.59
2023-02-23T12:01:42.168Z,15.60
2023-02-23T12:04:08.671Z,15.60
2023-02-23T12:06:35.128Z,15.60
2023-02-23T12:09:01.506Z,15.59
2023-02-23T12:11:27.883Z,15.59
2023-02-23T12:13:54.221Z,15.59
2023-02-23T12:16:21.036Z,15.58
2023-02-23T12:18:47.739Z,15.58
2023-02-23T12:21:14.015Z,15.60
2023-02-23T12:23:40.344Z,15.58
2023-02-23T12:26:06.786Z,15.60
2023-02-23T12:28:33.367Z,15.58
2023-02-23T12:30:59.743Z,15.59
2023-02-23T12:33:26.068Z,15.58
2023-02-23T12:35:52.640Z,15.57
2023-02-23T12:38:19.438Z,15.58
2023-02-23T12:40:45.824Z,15.57
2023-02-23T12:43:12.726Z,15.57
2023-02-23T12:45:39.479Z,15.57
2023-02-23T12:48:05.979Z,15.54
2023-02-23T12:50:32.374Z,15.54
2023-02-23T12:52:59.209Z,15.53
2023-02-23T12:55:25.554Z,15.54
2023-02-23T12:57:52.146Z,15.52
2023-02-23T13:00:19.050Z,15.54
2023-02-23T13:02:45.584Z,15.54
2023-02-23T13:05:12.008Z,15.56
2023-02-23T13:07:38.747Z,15.61
2023-02-23T13:10:05.161Z,15.63
2023-02-23T13:12:31.757Z,15.68
2023-02-23T13:14:58.260Z,15.70
2023-02-23T13:17:24.570Z,15.74
2023-02-23T13:19:51.177Z,15.75
2023-02-23T13:22:17.930Z,15.78
2023-02-23T13:24:44.401Z,15.80
2023-02-23T13:27:10.773Z,15.83
2023-02-23T13:29:37.162Z,15.84
2023-02-23T13:32:03.818Z,15.89
2023-02-23T13:34:30.436Z,15.92
2023-02-23T13:36:57.126Z,15.98
2023-02-23T13:39:23.618Z,16.03
2023-02-23T13:41:50.403Z,16.10
2023-02-23T13:44:16.943Z,16.12
2023-02-23T13:46:43.192Z,16.16
2023-02-23T13:49:09.587Z,16.23
2023-02-23T13:51:35.941Z,16.30
2023-02-23T13:54:02.415Z,16.35
2023-02-23T13:56:29.296Z,16.41
2023-02-23T13:58:55.659Z,16.48
2023-02-23T14:01:22.449Z,16.52
2023-02-23T14:03:49.627Z,16.57
2023-02-23T14:06:15.968Z,16.64
2023-02-23T14:08:42.678Z,16.68
2023-02-23T14:11:09.313Z,16.76
2023-02-23T14:13:35.692Z,16.80
2023-02-23T14:16:02.409Z,16.85
2023-02-23T14:18:28.879Z,16.91
2023-02-23T14:20:55.651Z,16.96
2023-02-23T14:23:22.032Z,17.03
2023-02-23T14:25:48.407Z,17.08
2023-02-23T14:28:14.717Z,17.14
2023-02-23T14:30:41.404Z,17.20
2023-02-23T14:33:21.109Z,17.25
2023-02-23T14:35:47.853Z,17.30
2023-02-23T14:38:14.450Z,17.35
2023-02-23T14:40:40.926Z,17.39
2023-02-23T14:43:07.254Z,17.43
2023-02-23T14:45:34.143Z,17.45
2023-02-23T14:48:00.541Z,17.49
2023-02-23T14:50:27.001Z,17.52
2023-02-23T14:52:53.341Z,17.58
2023-02-23T14:55:20.096Z,17.59
2023-02-23T14:57:46.505Z,17.65
2023-02-23T15:00:12.859Z,17.66
2023-02-23T15:02:53.677Z,17.70
2023-02-23T15:05:20.449Z,17.73
2023-02-23T15:07:47.420Z,17.75
2023-02-23T15:10:13.881Z,17.77
2023-02-23T15:12:40.710Z,17.78
2023-02-23T15:15:07.317Z,17.81
2023-02-23T15:17:33.607Z,17.82
2023-02-23T15:22:47.096Z,17.85
2023-02-23T15:25:13.402Z,17.85
2023-02-23T15:27:39.804Z,17.86
2023-02-23T15:30:06.146Z,17.87
2023-02-23T15:32:32.819Z,17.89
2023-02-23T15:34:59.345Z,17.90
2023-02-23T15:37:26.608Z,17.91
2023-02-23T15:39:52.956Z,17.92
2023-02-23T15:42:19.674Z,17.93
2023-02-23T15:44:46.173Z,17.93
2023-02-23T15:47:13.068Z,17.95
2023-02-23T15:49:39.771Z,17.94
2023-02-23T15:52:06.251Z,17.95
2023-02-23T15:54:33.144Z,17.95
2023-02-23T15:56:59.889Z,17.95
2023-02-23T15:59:26.322Z,17.96
2023-02-23T16:01:52.751Z,17.96
2023-02-23T16:04:19.114Z,17.97
2023-02-23T16:06:45.724Z,17.97
2023-02-23T16:09:12.089Z,17.95
2023-02-23T16:11:39.157Z,17.96
2023-02-23T16:14:05.787Z,17.96
2023-02-23T16:16:32.336Z,17.96
2023-02-23T16:18:58.830Z,17.97
2023-02-23T16:21:25.397Z,17.97
2023-02-23T16:23:51.882Z,17.98
2023-02-23T16:26:18.819Z,17.97
2023-02-23T16:28:45.461Z,17.97
2023-02-23T16:31:12.059Z,17.99
2023-02-23T16:33:38.487Z,17.98
2023-02-23T16:36:04.888Z,17.98
2023-02-23T16:38:31.198Z,17.99
2023-02-23T16:40:57.732Z,17.99
2023-02-23T16:43:24.162Z,17.99
2023-02-23T16:45:51.107Z,18.00
2023-02-23T16:48:17.582Z,17.99
2023-02-23T16:50:43.952Z,17.98
2023-02-23T16:53:10.323Z,17.99
2023-02-23T16:55:36.682Z,17.99
2023-02-23T16:58:03.480Z,17.99
2023-02-23T17:00:29.855Z,17.98
2023-02-23T17:02:56.710Z,17.98
2023-02-23T17:05:23.479Z,17.97
2023-02-23T17:07:49.892Z,17.97
2023-02-23T17:10:16.653Z,17.97
2023-02-23T17:12:43.062Z,17.97
2023-02-23T17:15:09.402Z,17.97
2023-02-23T17:17:35.696Z,17.96
2023-02-23T17:20:02.028Z,17.95
2023-02-23T17:22:28.717Z,17.95
2023-02-23T17:24:55.169Z,17.96
2023-02-23T17:27:21.510Z,17.95
2023-02-23T17:29:47.931Z,17.95
2023-02-23T17:32:14.587Z,17.94
2023-02-23T17:34:41.096Z,17.94
2023-02-23T17:37:08.036Z,17.93
2023-02-23T17:39:34.557Z,17.93
2023-02-23T17:42:00.925Z,17.92
2023-02-23T17:44:27.304Z,17.92
2023-02-23T17:46:53.779Z,17.91
2023-02-23T17:49:20.126Z,17.93
2023-02-23T17:51:46.750Z,17.91
2023-02-23T17:54:13.077Z,17.90
2023-02-23T17:56:39.423Z,17.91
2023-02-23T17:59:05.829Z,17.87
2023-02-23T18:01:32.267Z,17.88
2023-02-23T18:03:58.741Z,17.89
2023-02-23T18:06:25.119Z,17.86
2023-02-23T18:08:51.523Z,17.86
2023-02-23T18:11:17.936Z,17.85
2023-02-23T18:13:46.199Z,17.85
2023-02-23T18:16:14.996Z,17.86
2023-02-23T18:18:41.501Z,17.85
2023-02-23T18:21:08.088Z,17.84
2023-02-23T18:23:34.408Z,17.84
2023-02-23T18:26:00.754Z,17.84
2023-02-23T18:28:27.030Z,17.83
2023-02-23T18:30:54.004Z,17.81
2023-02-23T18:33:20.665Z,17.81
2023-02-23T18:35:47.051Z,17.81
2023-02-23T18:38:13.563Z,17.82
2023-02-23T18:40:40.109Z,17.81
2023-02-23T18:43:06.800Z,17.80
2023-02-23T18:45:33.899Z,17.79
2023-02-23T18:48:00.541Z,17.77
2023-02-23T18:50:27.194Z,17.77
2023-02-23T18:52:53.863Z,17.77
2023-02-23T18:55:20.460Z,17.77
2023-02-23T18:57:46.803Z,17.78
2023-02-23T19:00:13.795Z,17.76
2023-02-23T19:02:40.504Z,17.75
2023-02-23T19:05:07.391Z,17.74
2023-02-23T19:07:33.906Z,17.73
2023-02-23T19:10:00.238Z,17.71
2023-02-23T19:12:26.723Z,17.74
2023-02-23T19:14:53.100Z,17.73
2023-02-23T19:17:19.399Z,17.79
2023-02-23T19:19:45.757Z,17.84
2023-02-23T19:22:12.276Z,17.94
2023-02-23T19:24:39.158Z,17.96
2023-02-23T19:27:05.770Z,18.03
2023-02-23T19:29:32.262Z,18.08
2023-02-23T19:31:59.216Z,18.14
2023-02-23T19:34:26.023Z,18.23
2023-02-23T19:36:52.362Z,18.32
2023-02-23T19:39:18.776Z,18.41
2023-02-23T19:41:45.769Z,18.48
2023-02-23T19:44:12.290Z,18.56
2023-02-23T19:46:39.130Z,18.65
2023-02-23T19:49:05.831Z,18.70
2023-02-23T19:51:32.291Z,18.76
2023-02-23T19:53:58.681Z,18.81
2023-02-23T19:56:25.020Z,18.88
2023-02-23T19:58:51.501Z,18.92
2023-02-23T20:01:18.299Z,18.95
2023-02-23T20:03:45.677Z,19.01
2023-02-23T20:06:12.035Z,19.06
2023-02-23T20:08:38.554Z,19.10
2023-02-23T20:11:04.998Z,19.13
2023-02-23T20:13:31.381Z,19.20
2023-02-23T20:15:57.672Z,19.22
2023-02-23T20:18:23.971Z,19.25
2023-02-23T20:20:50.321Z,19.28
2023-02-23T20:23:17.249Z,19.30
2023-02-23T20:25:44.263Z,19.33
2023-02-23T20:28:11.035Z,19.34
2023-02-23T20:30:37.531Z,19.32
2023-02-23T20:33:03.997Z,19.34
2023-02-23T20:35:30.399Z,19.35
2023-02-23T20:37:56.977Z,19.34
2023-02-23T20:40:23.279Z,19.35
2023-02-23T20:42:49.856Z,19.36
2023-02-23T20:45:16.738Z,19.38
2023-02-23T20:47:43.370Z,19.40
2023-02-23T20:50:09.916Z,19.41
2023-02-23T20:52:36.265Z,19.43
2023-02-23T20:55:03.051Z,19.45
2023-02-23T20:57:29.400Z,19.47
2023-02-23T20:59:55.748Z,19.48
2023-02-23T21:02:22.089Z,19.48
2023-02-23T21:04:48.574Z,19.43
2023-02-23T21:07:14.967Z,19.29
2023-02-23T21:09:41.309Z,19.23
2023-02-23T21:12:07.770Z,19.18
2023-02-23T21:14:35.489Z,19.16
2023-02-23T21:17:02.063Z,19.12
2023-02-23T21:19:28.596Z,19.10
2023-02-23T21:21:55.352Z,19.09
2023-02-23T21:24:21.721Z,19.08
2023-02-23T21:26:48.401Z,19.07
2023-02-23T21:29:14.825Z,19.04
2023-02-23T21:31:41.859Z,19.03
2023-02-23T21:34:08.560Z,19.04
2023-02-23T21:36:35.812Z,19.02
2023-02-23T21:39:02.221Z,19.01
2023-02-23T21:41:29.057Z,19.00
2023-02-23T21:43:55.607Z,18.98
2023-02-23T21:46:22.033Z,18.97
2023-02-23T21:48:48.443Z,18.97
2023-02-23T21:51:14.867Z,18.94
2023-02-23T21:53:41.260Z,18.94
2023-02-23T21:56:07.888Z,18.91
2023-02-23T21:58:34.838Z,18.90
2023-02-23T22:01:01.282Z,18.89
2023-02-23T22:03:27.643Z,18.87
2023-02-23T22:05:54.001Z,18.88
2023-02-23T22:08:20.813Z,18.85
2023-02-23T22:10:47.121Z,18.83
2023-02-23T22:13:14.524Z,18.74
2023-02-23T22:15:41.065Z,18.67
2023-02-23T22:18:07.936Z,18.62
2023-02-23T22:20:34.384Z,18.59
2023-02-23T22:23:00.851Z,18.62
2023-02-23T22:25:27.141Z,18.59
2023-02-23T22:27:53.443Z,18.62
2023-02-23T22:30:19.883Z,18.54
2023-02-23T22:32:46.578Z,18.55
2023-02-23T22:35:13.041Z,18.54
2023-02-23T22:37:39.810Z,18.54
2023-02-23T22:40:06.501Z,18.54
2023-02-23T22:42:32.795Z,18.54
2023-02-23T22:44:59.603Z,18.49
2023-02-23T22:47:26.039Z,18.47
2023-02-23T22:49:52.446Z,18.48
2023-02-23T22:52:18.871Z,18.47
2023-02-23T22:54:45.387Z,18.48
2023-02-23T22:57:11.701Z,18.42
2023-02-23T22:59:38.317Z,18.41
2023-02-23T23:02:04.673Z,18.38
2023-02-23T23:04:31.277Z,18.40
2023-02-23T23:06:57.918Z,18.39
2023-02-23T23:09:24.615Z,18.39
2023-02-23T23:11:51.379Z,18.34
2023-02-23T23:14:17.795Z,18.36
2023-02-23T23:16:44.346Z,18.35
2023-02-23T23:19:11.764Z,18.35
2023-02-23T23:21:39.030Z,18.30
2023-02-23T23:24:05.327Z,18.32
2023-02-23T23:26:31.782Z,18.29
2023-02-23T23:28:58.123Z,18.26
2023-02-23T23:31:25.063Z,18.24
2023-02-23T23:33:51.532Z,18.25
2023-02-23T23:36:18.042Z,18.25
2023-02-23T23:38:44.317Z,18.21
2023-02-23T23:41:10.613Z,18.22
2023-02-23T23:43:37.046Z,18.20
2023-02-23T23:46:03.385Z,18.19
2023-02-23T23:48:29.715Z,18.15
2023-02-23T23:50:56.190Z,18.15
2023-02-23T23:53:22.702Z,18.18
2023-02-23T23:55:49.053Z,18.10
2023-02-23T23:58:15.399Z,18.10
